createdAt,value
2023-02-08T00:01:35.704Z,15.53
2023-02-08T00:04:04.563Z,15.63
2023-02-08T00:06:33.350Z,19.20
2023-02-08T00:09:03.040Z,15.20
2023-02-08T00:11:34.724Z,18.20
2023-02-08T00:14:03.526Z,16.80
2023-02-08T00:16:32.429Z,16.70
2023-02-08T00:19:01.228Z,14.83
2023-02-08T00:21:30.334Z,15.50
2023-02-08T00:23:59.132Z,14.37
2023-02-08T00:26:27.872Z,14.33
2023-02-08T00:28:58.034Z,15.37
2023-02-08T00:31:26.989Z,14.73
2023-02-08T00:33:55.933Z,14.00
2023-02-08T00:36:24.799Z,14.67
2023-02-08T00:38:53.764Z,19.57
2023-02-08T00:41:22.751Z,18.10
2023-02-08T00:43:51.544Z,18.27
2023-02-08T00:46:22.094Z,14.67
2023-02-08T00:48:50.957Z,14.47
2023-02-08T00:51:19.716Z,14.47
2023-02-08T00:53:48.921Z,14.83
2023-02-08T00:56:18.052Z,16.87
2023-02-08T00:58:47.019Z,15.33
2023-02-08T01:01:16.567Z,13.63
2023-02-08T01:03:47.891Z,14.97
2023-02-08T01:06:19.235Z,18.13
2023-02-08T01:08:48.220Z,17.00
2023-02-08T01:11:22.368Z,17.73
2023-02-08T01:13:51.743Z,16.10
2023-02-08T01:16:23.976Z,18.47
2023-02-08T01:18:59.221Z,16.53
2023-02-08T01:21:31.397Z,18.10
2023-02-08T01:24:01.738Z,16.43
2023-02-08T01:26:31.779Z,16.50
2023-02-08T01:29:01.373Z,18.23
2023-02-08T01:31:32.569Z,17.30
2023-02-08T01:34:04.397Z,18.93
2023-02-08T01:36:35.292Z,16.17
2023-02-08T01:39:05.232Z,17.07
2023-02-08T01:41:38.743Z,14.17
2023-02-08T01:45:07.940Z,15.53
2023-02-08T01:47:36.772Z,18.57
2023-02-08T01:50:08.018Z,15.80
2023-02-08T01:52:37.265Z,16.60
2023-02-08T01:55:13.033Z,16.33
2023-02-08T01:57:44.034Z,15.40
2023-02-08T02:00:21.355Z,17.30
2023-02-08T02:02:54.373Z,14.60
2023-02-08T02:05:36.682Z,14.57
2023-02-08T02:08:07.001Z,15.50
2023-02-08T02:10:38.837Z,16.30
2023-02-08T02:13:22.237Z,15.43
2023-02-08T02:15:51.729Z,17.03
2023-02-08T02:18:27.339Z,18.50
2023-02-08T02:21:47.205Z,19.03
2023-02-08T02:25:05.449Z,18.00
2023-02-08T02:28:07.832Z,16.27
2023-02-08T02:31:28.383Z,17.80
2023-02-08T02:34:06.737Z,17.57
2023-02-08T02:37:01.246Z,20.03
2023-02-08T02:39:41.804Z,17.93
2023-02-08T02:42:39.923Z,19.23
2023-02-08T02:45:19.435Z,18.93
2023-02-08T02:48:01.453Z,17.80
2023-02-08T02:50:38.462Z,22.07
2023-02-08T02:53:19.689Z,23.03
2023-02-08T02:55:57.549Z,23.07
2023-02-08T02:58:28.976Z,20.40
2023-02-08T03:01:00.810Z,22.23
2023-02-08T03:03:35.870Z,21.10
2023-02-08T03:06:11.709Z,22.13
2023-02-08T03:09:23.748Z,25.13
2023-02-08T03:12:06.162Z,21.57
2023-02-08T03:14:53.265Z,21.13
2023-02-08T03:17:37.785Z,19.40
2023-02-08T03:20:12.116Z,22.20
2023-02-08T03:22:51.296Z,20.80
2023-02-08T03:25:25.366Z,19.80
2023-02-08T03:28:07.691Z,20.43
2023-02-08T03:30:50.109Z,19.80
2023-02-08T03:33:28.622Z,18.80
2023-02-08T03:36:07.325Z,20.40
2023-02-08T03:38:42.665Z,19.83
2023-02-08T03:41:17.064Z,15.03
2023-02-08T03:43:53.863Z,18.93
2023-02-08T03:46:27.215Z,18.67
2023-02-08T03:49:03.577Z,19.53
2023-02-08T03:51:36.625Z,20.27
2023-02-08T03:54:12.368Z,18.97
2023-02-08T03:56:47.109Z,16.93
2023-02-08T03:59:23.344Z,20.53
2023-02-08T04:01:59.782Z,17.93
2023-02-08T04:04:35.367Z,21.03
2023-02-08T04:07:06.101Z,18.93
2023-02-08T04:09:35.460Z,21.00
2023-02-08T04:12:06.439Z,20.63
2023-02-08T04:14:35.292Z,19.03
2023-02-08T04:17:04.930Z,18.73
2023-02-08T04:19:33.850Z,19.90
2023-02-08T04:22:02.930Z,18.20
2023-02-08T04:24:33.098Z,18.27
2023-02-08T04:27:02.239Z,19.03
2023-02-08T04:29:31.455Z,22.77
2023-02-08T04:32:00.376Z,20.87
2023-02-08T04:34:29.752Z,21.07
2023-02-08T04:36:58.563Z,25.13
2023-02-08T04:39:27.715Z,22.50
2023-02-08T04:41:58.066Z,22.60
2023-02-08T04:44:27.325Z,24.90
2023-02-08T04:46:56.411Z,26.43
2023-02-08T04:49:25.234Z,28.10
2023-02-08T04:51:54.147Z,22.60
2023-02-08T04:54:22.941Z,20.43
2023-02-08T04:56:51.730Z,24.77
2023-02-08T04:59:22.097Z,25.97
2023-02-08T05:01:50.863Z,26.77
2023-02-08T05:04:19.643Z,19.63
2023-02-08T05:06:48.618Z,22.93
2023-02-08T05:09:17.406Z,21.97
2023-02-08T05:11:46.198Z,23.37
2023-02-08T05:14:14.991Z,20.17
2023-02-08T05:16:45.329Z,22.27
2023-02-08T05:19:14.504Z,20.13
2023-02-08T05:21:43.327Z,18.43
2023-02-08T05:24:13.042Z,21.17
2023-02-08T05:26:42.696Z,21.10
2023-02-08T05:29:11.923Z,20.17
2023-02-08T05:31:40.775Z,21.73
2023-02-08T05:34:11.186Z,19.70
2023-02-08T05:36:40.165Z,19.07
2023-02-08T05:39:09.003Z,20.87
2023-02-08T05:41:37.822Z,24.17
2023-02-08T05:44:06.910Z,25.03
2023-02-08T05:46:38.093Z,19.57
2023-02-08T05:49:07.840Z,20.20
2023-02-08T05:51:38.054Z,21.70
2023-02-08T05:54:07.910Z,21.07
2023-02-08T05:56:36.868Z,22.83
2023-02-08T05:59:05.884Z,20.13
2023-02-08T06:01:34.727Z,22.13
2023-02-08T06:04:03.515Z,18.33
2023-02-08T06:06:32.388Z,23.60
2023-02-08T06:09:03.015Z,22.57
2023-02-08T06:11:31.881Z,22.27
2023-02-08T06:14:01.002Z,20.93
2023-02-08T06:16:30.086Z,19.57
2023-02-08T06:18:58.893Z,19.70
2023-02-08T06:21:28.293Z,20.10
2023-02-08T06:23:57.101Z,19.13
2023-02-08T06:26:28.175Z,18.13
2023-02-08T06:28:57.204Z,19.13
2023-02-08T06:31:26.039Z,22.40
2023-02-08T06:33:54.885Z,16.97
2023-02-08T06:36:23.689Z,18.60
2023-02-08T06:38:52.622Z,20.40
2023-02-08T06:41:21.791Z,18.27
2023-02-08T06:43:51.976Z,19.33
2023-02-08T06:46:20.750Z,17.37
2023-02-08T06:48:49.510Z,17.70
2023-02-08T06:51:18.264Z,20.17
2023-02-08T06:53:47.538Z,16.40
2023-02-08T06:56:16.708Z,14.80
2023-02-08T06:58:46.017Z,16.07
2023-02-08T07:01:16.569Z,17.83
2023-02-08T07:03:45.416Z,17.93
2023-02-08T07:06:15.487Z,17.40
2023-02-08T07:08:44.814Z,15.70
2023-02-08T07:11:18.471Z,17.03
2023-02-08T07:13:49.326Z,17.47
2023-02-08T07:16:21.004Z,15.33
2023-02-08T07:18:49.997Z,16.60
2023-02-08T07:21:18.835Z,17.83
2023-02-08T07:23:47.596Z,19.63
2023-02-08T07:26:16.475Z,17.30
2023-02-08T07:28:45.400Z,20.70
2023-02-08T07:31:18.750Z,19.07
2023-02-08T07:33:47.445Z,27.13
2023-02-08T07:36:16.385Z,29.70
2023-02-08T07:38:45.245Z,25.17
2023-02-08T07:41:16.775Z,25.97
2023-02-08T07:43:45.928Z,21.37
2023-02-08T07:46:17.075Z,16.60
2023-02-08T07:48:49.415Z,15.90
2023-02-08T07:51:18.485Z,20.53
2023-02-08T07:53:47.628Z,20.43
2023-02-08T07:56:16.449Z,17.77
2023-02-08T07:58:45.371Z,23.27
2023-02-08T08:01:22.265Z,24.47
2023-02-08T08:03:53.568Z,19.77
2023-02-08T08:06:24.319Z,20.07
2023-02-08T08:08:53.810Z,22.80
2023-02-08T08:11:23.997Z,23.03
2023-02-08T08:13:53.597Z,22.57
2023-02-08T08:16:22.790Z,20.60
2023-02-08T08:18:53.375Z,22.33
2023-02-08T08:21:22.178Z,19.67
2023-02-08T08:23:50.982Z,22.60
2023-02-08T08:26:22.811Z,37.10
2023-02-08T08:28:51.754Z,32.83
2023-02-08T08:31:23.423Z,36.63
2023-02-08T08:33:53.635Z,37.20
2023-02-08T08:36:22.403Z,32.10
2023-02-08T08:38:51.574Z,38.03
2023-02-08T08:41:22.395Z,32.23
2023-02-08T08:43:51.512Z,29.37
2023-02-08T08:46:21.029Z,41.07
2023-02-08T08:48:51.713Z,35.87
2023-02-08T08:51:22.394Z,35.73
2023-02-08T08:53:51.967Z,29.27
2023-02-08T08:56:21.332Z,39.23
2023-02-08T08:58:50.254Z,40.97
2023-02-08T09:01:19.328Z,30.13
2023-02-08T09:03:48.395Z,28.67
2023-02-08T09:06:18.231Z,33.10
2023-02-08T09:08:51.430Z,35.87
2023-02-08T09:11:20.797Z,33.83
2023-02-08T09:13:53.174Z,30.73
2023-02-08T09:16:22.246Z,27.83
2023-02-08T09:18:51.802Z,26.53
2023-02-08T09:21:25.510Z,24.13
2023-02-08T09:23:55.975Z,23.90
2023-02-08T09:26:26.732Z,29.07
2023-02-08T09:28:56.153Z,20.03
2023-02-08T09:31:27.751Z,25.13
2023-02-08T09:33:59.608Z,22.07
2023-02-08T09:36:33.198Z,22.53
2023-02-08T09:39:10.217Z,20.60
2023-02-08T09:42:09.514Z,20.97
2023-02-08T09:44:55.336Z,19.90
2023-02-08T09:47:31.355Z,25.87
2023-02-08T09:50:06.205Z,22.80
2023-02-08T09:52:42.634Z,22.67
2023-02-08T09:55:30.486Z,19.50
2023-02-08T09:58:03.503Z,20.77
2023-02-08T10:00:37.165Z,23.43
2023-02-08T10:03:19.054Z,21.97
2023-02-08T10:05:48.169Z,23.57
2023-02-08T10:08:17.080Z,24.20
2023-02-08T10:10:56.777Z,22.20
2023-02-08T10:13:56.199Z,23.50
2023-02-08T10:16:53.880Z,21.27
2023-02-08T10:19:50.162Z,19.23
2023-02-08T10:22:35.957Z,20.37
2023-02-08T10:25:39.602Z,18.13
2023-02-08T10:28:37.780Z,24.13
2023-02-08T10:31:20.322Z,14.47
2023-02-08T10:34:02.953Z,20.23
2023-02-08T10:36:42.025Z,19.03
2023-02-08T10:39:18.741Z,16.23
2023-02-08T10:41:49.248Z,14.63
2023-02-08T10:44:31.474Z,15.30
2023-02-08T10:47:14.456Z,14.60
2023-02-08T10:49:55.133Z,13.27
2023-02-08T10:52:24.014Z,12.27
2023-02-08T10:54:53.086Z,19.03
2023-02-08T10:57:29.270Z,18.13
2023-02-08T11:00:05.522Z,12.00
2023-02-08T11:02:36.747Z,16.60
2023-02-08T11:05:12.609Z,15.13
2023-02-08T11:07:42.385Z,15.67
2023-02-08T11:10:25.779Z,19.77
2023-02-08T11:13:01.235Z,13.97
2023-02-08T11:15:39.224Z,14.23
2023-02-08T11:18:20.208Z,14.70
2023-02-08T11:20:53.284Z,13.33
2023-02-08T11:23:27.086Z,15.00
2023-02-08T11:26:15.336Z,15.43
2023-02-08T11:28:44.245Z,11.40
2023-02-08T11:31:21.106Z,12.70
2023-02-08T11:34:09.410Z,12.73
2023-02-08T11:36:46.860Z,11.27
2023-02-08T11:39:24.938Z,11.97
2023-02-08T11:41:59.718Z,10.03
2023-02-08T11:44:32.391Z,12.70
2023-02-08T11:47:07.411Z,11.57
2023-02-08T11:49:40.813Z,12.53
2023-02-08T11:52:23.009Z,13.90
2023-02-08T11:54:51.822Z,14.50
2023-02-08T11:57:23.685Z,12.63
2023-02-08T12:00:14.565Z,13.57
2023-02-08T12:02:46.554Z,12.13
2023-02-08T12:05:19.650Z,14.40
2023-02-08T12:08:05.749Z,15.80
2023-02-08T12:11:17.164Z,12.53
2023-02-08T12:14:27.621Z,13.23
2023-02-08T12:17:29.983Z,13.43
2023-02-08T12:20:48.170Z,9.87
2023-02-08T12:24:03.857Z,12.03
2023-02-08T12:27:04.786Z,12.10
2023-02-08T12:29:48.275Z,12.33
2023-02-08T12:32:50.450Z,16.47
2023-02-08T12:36:05.594Z,16.60
2023-02-08T12:39:26.017Z,15.17
2023-02-08T12:42:18.216Z,14.30
2023-02-08T12:45:09.499Z,12.23
2023-02-08T12:48:04.737Z,12.83
2023-02-08T12:50:45.558Z,15.73
2023-02-08T12:53:25.804Z,14.20
2023-02-08T12:55:58.834Z,16.93
2023-02-08T12:58:32.043Z,16.63
2023-02-08T13:01:10.553Z,13.07
2023-02-08T13:03:49.172Z,12.43
2023-02-08T13:06:24.719Z,11.60
2023-02-08T13:09:04.330Z,16.27
2023-02-08T13:11:41.482Z,14.17
2023-02-08T13:14:22.233Z,12.33
2023-02-08T13:16:56.689Z,14.20
2023-02-08T13:19:33.806Z,11.73
2023-02-08T13:22:05.897Z,10.40
2023-02-08T13:24:41.269Z,10.70
2023-02-08T13:27:18.850Z,12.27
2023-02-08T13:29:51.042Z,16.57
2023-02-08T13:32:30.269Z,11.03
2023-02-08T13:35:03.931Z,10.80
2023-02-08T13:37:37.033Z,11.03
2023-02-08T13:40:20.305Z,11.47
2023-02-08T13:42:55.393Z,12.67
2023-02-08T13:45:31.736Z,10.83
2023-02-08T13:48:03.525Z,10.83
2023-02-08T13:50:48.918Z,12.50
2023-02-08T13:53:19.630Z,10.70
2023-02-08T13:56:10.781Z,13.33
2023-02-08T13:59:25.541Z,12.27
2023-02-08T14:02:28.333Z,12.97
2023-02-08T14:05:38.860Z,12.30
2023-02-08T14:08:16.585Z,12.60
2023-02-08T14:11:01.816Z,14.00
2023-02-08T14:13:38.134Z,16.57
2023-02-08T14:16:29.609Z,11.83
2023-02-08T14:19:00.874Z,15.93
2023-02-08T14:21:38.159Z,20.60
2023-02-08T14:24:20.530Z,16.20
2023-02-08T14:26:50.134Z,13.87
2023-02-08T14:29:28.898Z,18.50
2023-02-08T14:31:58.934Z,17.10
2023-02-08T14:34:34.934Z,15.20
2023-02-08T14:37:26.400Z,20.27
2023-02-08T14:40:50.588Z,20.47
2023-02-08T14:43:37.097Z,16.97
2023-02-08T14:46:46.110Z,14.40
2023-02-08T14:49:17.286Z,15.83
2023-02-08T14:51:55.344Z,16.53
2023-02-08T14:54:33.923Z,13.83
2023-02-08T14:57:08.433Z,14.27
2023-02-08T14:59:38.894Z,17.27
2023-02-08T15:02:21.745Z,17.07
2023-02-08T15:04:50.795Z,17.27
2023-02-08T15:07:33.773Z,22.27
2023-02-08T15:10:05.867Z,14.67
2023-02-08T15:12:39.522Z,15.20
2023-02-08T15:15:24.715Z,13.10
2023-02-08T15:17:56.967Z,14.03
2023-02-08T15:20:29.722Z,14.60
2023-02-08T15:23:04.993Z,13.33
2023-02-08T15:25:36.206Z,12.93
2023-02-08T15:28:20.099Z,15.80
2023-02-08T15:30:58.187Z,25.13
2023-02-08T15:33:28.932Z,15.40
2023-02-08T15:36:01.466Z,21.00
2023-02-08T15:38:31.748Z,23.13
2023-02-08T15:41:08.281Z,23.97
2023-02-08T15:43:38.631Z,22.53
2023-02-08T15:46:18.095Z,32.67
2023-02-08T15:48:49.990Z,17.93
2023-02-08T15:51:20.580Z,22.37
2023-02-08T15:53:55.567Z,19.73
2023-02-08T15:56:37.233Z,20.83
2023-02-08T15:59:19.639Z,21.23
2023-02-08T16:01:49.399Z,20.50
2023-02-08T16:04:20.336Z,17.23
2023-02-08T16:06:55.040Z,18.60
2023-02-08T16:09:28.494Z,16.70
2023-02-08T16:12:01.677Z,16.57
2023-02-08T16:14:38.034Z,16.63
2023-02-08T16:17:39.475Z,16.57
2023-02-08T16:20:31.802Z,15.77
2023-02-08T16:23:05.324Z,17.47
2023-02-08T16:25:45.544Z,17.73
2023-02-08T16:28:30.522Z,20.90
2023-02-08T16:31:03.492Z,18.60
2023-02-08T16:33:37.375Z,21.93
2023-02-08T16:36:07.844Z,21.50
2023-02-08T16:38:36.939Z,18.70
2023-02-08T16:41:14.270Z,19.57
2023-02-08T16:43:44.763Z,19.17
2023-02-08T16:46:25.380Z,23.93
2023-02-08T16:48:56.995Z,21.47
2023-02-08T16:51:32.015Z,19.00
2023-02-08T16:54:07.672Z,21.37
2023-02-08T16:56:36.982Z,18.90
2023-02-08T16:59:05.880Z,20.17
2023-02-08T17:01:36.614Z,19.63
2023-02-08T17:04:06.030Z,18.30
2023-02-08T17:06:40.022Z,18.93
2023-02-08T17:09:15.222Z,17.23
2023-02-08T17:11:44.520Z,17.87
2023-02-08T17:14:13.440Z,17.87
2023-02-08T17:16:42.535Z,17.47
2023-02-08T17:19:19.118Z,17.40
2023-02-08T17:21:49.474Z,15.20
2023-02-08T17:24:18.485Z,19.17
2023-02-08T17:26:47.460Z,17.40
2023-02-08T17:29:16.508Z,17.53
2023-02-08T17:31:45.716Z,17.67
2023-02-08T17:34:17.800Z,17.33
2023-02-08T17:36:46.672Z,16.63
2023-02-08T17:39:17.931Z,17.73
2023-02-08T17:41:46.964Z,15.17
2023-02-08T17:44:16.555Z,16.37
2023-02-08T17:46:45.495Z,18.80
2023-02-08T17:49:16.560Z,17.00
2023-02-08T17:51:45.605Z,18.90
2023-02-08T17:54:16.687Z,16.87
2023-02-08T17:56:45.813Z,16.40
2023-02-08T17:59:14.873Z,19.10
2023-02-08T18:01:45.635Z,17.20
2023-02-08T18:04:14.794Z,18.67
2023-02-08T18:06:44.209Z,15.73
2023-02-08T18:09:13.368Z,16.30
2023-02-08T18:11:45.074Z,16.53
2023-02-08T18:14:14.394Z,15.90
2023-02-08T18:16:43.641Z,13.87
2023-02-08T18:19:12.523Z,16.80
2023-02-08T18:21:41.513Z,16.13
2023-02-08T18:24:11.945Z,15.47
2023-02-08T18:26:43.473Z,15.40
2023-02-08T18:29:12.761Z,20.90
2023-02-08T18:31:41.661Z,19.97
2023-02-08T18:34:11.316Z,19.97
2023-02-08T18:36:40.084Z,18.63
2023-02-08T18:39:08.981Z,18.60
2023-02-08T18:41:37.796Z,18.07
2023-02-08T18:44:08.222Z,16.57
2023-02-08T18:46:37.257Z,14.47
2023-02-08T18:49:07.016Z,16.87
2023-02-08T18:51:35.955Z,13.70
2023-02-08T18:54:07.077Z,16.37
2023-02-08T18:56:36.084Z,17.17
2023-02-08T18:59:05.110Z,14.60
2023-02-08T19:01:35.628Z,17.37
2023-02-08T19:04:04.732Z,16.53
2023-02-08T19:06:37.901Z,17.80
2023-02-08T19:09:08.929Z,20.80
2023-02-08T19:11:40.491Z,19.07
2023-02-08T19:14:15.524Z,17.93
2023-02-08T19:16:46.333Z,21.50
2023-02-08T19:19:15.597Z,20.20
2023-02-08T19:21:44.659Z,20.10
2023-02-08T19:24:15.330Z,22.93
2023-02-08T19:26:44.464Z,21.20
2023-02-08T19:29:16.363Z,22.97
2023-02-08T19:31:49.274Z,23.90
2023-02-08T19:34:19.533Z,20.40
2023-02-08T19:36:51.855Z,20.13
2023-02-08T19:39:24.029Z,19.20
2023-02-08T19:41:53.960Z,19.30
2023-02-08T19:44:23.476Z,20.97
2023-02-08T19:46:56.798Z,20.17
2023-02-08T19:49:27.440Z,21.17
2023-02-08T19:51:57.400Z,19.30
2023-02-08T19:54:26.536Z,20.83
2023-02-08T19:56:55.994Z,17.40
2023-02-08T19:59:28.110Z,17.00
2023-02-08T20:01:58.586Z,18.50
2023-02-08T20:04:27.480Z,17.83
2023-02-08T20:06:56.403Z,23.20
2023-02-08T20:09:25.299Z,20.80
2023-02-08T20:11:57.300Z,20.50
2023-02-08T20:14:29.096Z,20.00
2023-02-08T20:16:59.932Z,26.10
2023-02-08T20:19:29.419Z,27.77
2023-02-08T20:21:58.528Z,27.63
2023-02-08T20:24:27.665Z,26.63
2023-02-08T20:26:56.565Z,26.03
2023-02-08T20:29:30.601Z,24.50
2023-02-08T20:32:00.824Z,19.07
2023-02-08T20:34:29.808Z,25.43
2023-02-08T20:37:08.056Z,22.13
2023-02-08T20:39:38.513Z,20.07
2023-02-08T20:42:07.521Z,20.57
2023-02-08T20:44:36.956Z,21.40
2023-02-08T20:47:09.034Z,22.00
2023-02-08T20:49:39.705Z,18.77
2023-02-08T20:52:08.516Z,18.23
2023-02-08T20:54:38.892Z,18.83
2023-02-08T20:57:11.204Z,18.40
2023-02-08T20:59:40.271Z,17.47
2023-02-08T21:02:18.409Z,21.17
2023-02-08T21:04:47.703Z,24.37
2023-02-08T21:07:17.378Z,18.97
2023-02-08T21:09:46.996Z,19.13
2023-02-08T21:12:15.847Z,21.73
2023-02-08T21:14:44.709Z,19.23
2023-02-08T21:17:15.428Z,17.93
2023-02-08T21:19:44.319Z,21.03
2023-02-08T21:22:14.019Z,22.33
2023-02-08T21:24:42.869Z,20.50
2023-02-08T21:27:13.017Z,19.43
2023-02-08T21:29:42.125Z,21.20
2023-02-08T21:32:10.872Z,23.03
2023-02-08T21:34:41.145Z,24.37
2023-02-08T21:37:09.826Z,25.80
2023-02-08T21:39:38.597Z,23.43
2023-02-08T21:42:07.460Z,21.97
2023-02-08T21:44:36.339Z,19.40
2023-02-08T21:47:05.412Z,21.33
2023-02-08T21:49:51.722Z,23.43
2023-02-08T21:52:39.059Z,21.27
2023-02-08T21:55:08.506Z,21.17
2023-02-08T21:57:40.986Z,21.67
2023-02-08T22:00:12.195Z,23.40
2023-02-08T22:02:41.150Z,22.00
2023-02-08T22:05:10.365Z,24.20
2023-02-08T22:07:47.281Z,23.33
2023-02-08T22:10:19.852Z,23.40
2023-02-08T22:12:49.116Z,23.90
2023-02-08T22:15:21.306Z,26.53
2023-02-08T22:17:53.787Z,24.20
2023-02-08T22:20:23.129Z,25.90
2023-02-08T22:22:55.312Z,28.30
2023-02-08T22:25:25.173Z,24.97
2023-02-08T22:27:54.172Z,23.53
2023-02-08T22:30:25.493Z,27.13
2023-02-08T22:32:54.741Z,24.63
2023-02-08T22:35:23.435Z,23.93
2023-02-08T22:37:53.756Z,28.90
2023-02-08T22:40:22.875Z,24.20
2023-02-08T22:42:51.699Z,24.87
2023-02-08T22:45:21.044Z,23.07
2023-02-08T22:47:49.901Z,22.97
2023-02-08T22:50:18.901Z,21.83
2023-02-08T22:52:47.765Z,24.73
2023-02-08T22:55:18.005Z,25.73
2023-02-08T22:57:46.855Z,25.50
2023-02-08T23:00:17.503Z,28.63
2023-02-08T23:02:46.293Z,24.77
2023-02-08T23:05:15.168Z,24.80
2023-02-08T23:07:44.042Z,25.60
2023-02-08T23:10:13.629Z,27.00
2023-02-08T23:12:44.029Z,25.77
2023-02-08T23:15:13.201Z,25.40
2023-02-08T23:17:42.030Z,26.70
2023-02-08T23:20:12.605Z,25.83
2023-02-08T23:22:41.321Z,25.43
2023-02-08T23:25:10.306Z,25.70
2023-02-08T23:27:39.206Z,29.23
2023-02-08T23:30:11.028Z,27.73
2023-02-08T23:32:39.804Z,26.73
2023-02-08T23:35:10.661Z,25.93
2023-02-08T23:37:39.931Z,24.00
2023-02-08T23:40:10.764Z,24.97
2023-02-08T23:42:39.489Z,26.83
2023-02-08T23:45:11.388Z,25.97
2023-02-08T23:47:40.562Z,27.53
2023-02-08T23:50:11.358Z,24.37
2023-02-08T23:52:40.228Z,25.27
2023-02-08T23:55:10.067Z,27.43
2023-02-08T23:57:40.100Z,27.63
